sensor_id;sensor_type;location;lat;lon;timestamp;P1;durP1;ratioP1;P2;durP2;ratioP2
29916;SDS011;16786;49.466;11.068;2023-08-08T00:01:54;8.05;;;4.53;;
29916;SDS011;16786;49.466;11.068;2023-08-08T00:04:22;10.82;;;4.57;;
29916;SDS011;16786;49.466;11.068;2023-08-08T00:06:50;9.15;;;4.70;;
29916;SDS011;16786;49.466;11.068;2023-08-08T00:09:17;8.65;;;4.80;;
29916;SDS011;16786;49.466;11.068;2023-08-08T00:11:44;8.30;;;4.30;;
29916;SDS011;16786;49.466;11.068;2023-08-08T00:14:11;7.97;;;4.13;;
29916;SDS011;16786;49.466;11.068;2023-08-08T00:16:39;7.70;;;3.95;;
29916;SDS011;16786;49.466;11.068;2023-08-08T00:19:07;6.47;;;3.83;;
29916;SDS011;16786;49.466;11.068;2023-08-08T00:21:34;6.00;;;3.40;;
29916;SDS011;16786;49.466;11.068;2023-08-08T00:24:02;5.82;;;3.65;;
29916;SDS011;16786;49.466;11.068;2023-08-08T00:26:29;7.50;;;4.07;;
29916;SDS011;16786;49.466;11.068;2023-08-08T00:28:56;5.40;;;3.50;;
29916;SDS011;16786;49.466;11.068;2023-08-08T00:31:24;6.05;;;3.75;;
29916;SDS011;16786;49.466;11.068;2023-08-08T00:33:51;9.35;;;3.63;;
29916;SDS011;16786;49.466;11.068;2023-08-08T00:36:19;6.40;;;3.70;;
29916;SDS011;16786;49.466;11.068;2023-08-08T00:38:46;7.13;;;3.53;;
29916;SDS011;16786;49.466;11.068;2023-08-08T00:41:15;6.65;;;3.60;;
29916;SDS011;16786;49.466;11.068;2023-08-08T00:43:42;5.07;;;3.47;;
29916;SDS011;16786;49.466;11.068;2023-08-08T00:46:10;5.55;;;3.15;;
29916;SDS011;16786;49.466;11.068;2023-08-08T00:48:38;5.13;;;3.08;;
29916;SDS011;16786;49.466;11.068;2023-08-08T00:51:05;6.78;;;3.28;;
29916;SDS011;16786;49.466;11.068;2023-08-08T00:53:33;5.45;;;3.25;;
29916;SDS011;16786;49.466;11.068;2023-08-08T00:56:00;5.13;;;3.30;;
29916;SDS011;16786;49.466;11.068;2023-08-08T00:58:28;6.32;;;3.30;;
29916;SDS011;16786;49.466;11.068;2023-08-08T01:00:55;7.65;;;3.42;;
29916;SDS011;16786;49.466;11.068;2023-08-08T01:03:26;7.77;;;3.20;;
29916;SDS011;16786;49.466;11.068;2023-08-08T01:06:38;7.22;;;3.45;;
29916;SDS011;16786;49.466;11.068;2023-08-08T01:08:58;5.40;;;3.03;;
29916;SDS011;16786;49.466;11.068;2023-08-08T01:11:36;4.78;;;2.70;;
29916;SDS011;16786;49.466;11.068;2023-08-08T01:14:04;8.50;;;3.00;;
29916;SDS011;16786;49.466;11.068;2023-08-08T01:16:33;8.23;;;3.22;;
29916;SDS011;16786;49.466;11.068;2023-08-08T01:19:00;5.45;;;3.05;;
29916;SDS011;16786;49.466;11.068;2023-08-08T01:21:29;8.40;;;3.72;;
29916;SDS011;16786;49.466;11.068;2023-08-08T01:26:48;5.45;;;3.03;;
29916;SDS011;16786;49.466;11.068;2023-08-08T01:29:17;5.53;;;2.97;;
29916;SDS011;16786;49.466;11.068;2023-08-08T01:31:44;6.93;;;3.05;;
29916;SDS011;16786;49.466;11.068;2023-08-08T01:34:12;5.38;;;3.10;;
29916;SDS011;16786;49.466;11.068;2023-08-08T01:39:22;6.57;;;3.08;;
29916;SDS011;16786;49.466;11.068;2023-08-08T01:41:56;6.80;;;3.28;;
29916;SDS011;16786;49.466;11.068;2023-08-08T01:44:25;7.90;;;3.00;;
29916;SDS011;16786;49.466;11.068;2023-08-08T01:46:55;5.45;;;2.95;;
29916;SDS011;16786;49.466;11.068;2023-08-08T01:49:22;5.10;;;2.70;;
29916;SDS011;16786;49.466;11.068;2023-08-08T01:51:49;7.63;;;3.05;;
29916;SDS011;16786;49.466;11.068;2023-08-08T01:54:19;10.77;;;2.85;;
29916;SDS011;16786;49.466;11.068;2023-08-08T01:56:46;5.00;;;3.13;;
29916;SDS011;16786;49.466;11.068;2023-08-08T01:59:14;5.00;;;2.88;;
29916;SDS011;16786;49.466;11.068;2023-08-08T02:01:42;5.50;;;3.25;;
29916;SDS011;16786;49.466;11.068;2023-08-08T02:04:10;4.53;;;2.83;;
29916;SDS011;16786;49.466;11.068;2023-08-08T02:06:37;4.38;;;2.70;;
29916;SDS011;16786;49.466;11.068;2023-08-08T02:09:04;6.63;;;2.55;;
29916;SDS011;16786;49.466;11.068;2023-08-08T02:11:34;6.05;;;2.78;;
29916;SDS011;16786;49.466;11.068;2023-08-08T02:14:01;5.18;;;2.67;;
29916;SDS011;16786;49.466;11.068;2023-08-08T02:16:28;5.75;;;2.80;;
29916;SDS011;16786;49.466;11.068;2023-08-08T02:18:56;4.60;;;2.45;;
29916;SDS011;16786;49.466;11.068;2023-08-08T02:21:23;5.05;;;2.80;;
29916;SDS011;16786;49.466;11.068;2023-08-08T02:23:51;5.88;;;2.60;;
29916;SDS011;16786;49.466;11.068;2023-08-08T02:26:18;5.13;;;2.58;;
29916;SDS011;16786;49.466;11.068;2023-08-08T02:28:47;3.92;;;2.55;;
29916;SDS011;16786;49.466;11.068;2023-08-08T02:31:16;5.25;;;2.65;;
29916;SDS011;16786;49.466;11.068;2023-08-08T02:33:49;4.82;;;2.38;;
29916;SDS011;16786;49.466;11.068;2023-08-08T02:36:17;6.32;;;2.75;;
29916;SDS011;16786;49.466;11.068;2023-08-08T02:38:45;5.15;;;2.65;;
29916;SDS011;16786;49.466;11.068;2023-08-08T02:41:12;4.85;;;2.85;;
29916;SDS011;16786;49.466;11.068;2023-08-08T02:43:41;4.68;;;2.20;;
29916;SDS011;16786;49.466;11.068;2023-08-08T02:46:08;6.97;;;2.50;;
29916;SDS011;16786;49.466;11.068;2023-08-08T02:48:36;6.93;;;2.50;;
29916;SDS011;16786;49.466;11.068;2023-08-08T02:51:03;5.53;;;2.78;;
29916;SDS011;16786;49.466;11.068;2023-08-08T02:53:31;4.45;;;2.45;;
29916;SDS011;16786;49.466;11.068;2023-08-08T02:55:58;5.45;;;2.63;;
29916;SDS011;16786;49.466;11.068;2023-08-08T02:58:29;4.18;;;2.40;;
29916;SDS011;16786;49.466;11.068;2023-08-08T03:00:58;3.70;;;2.15;;
29916;SDS011;16786;49.466;11.068;2023-08-08T03:03:26;7.47;;;2.88;;
29916;SDS011;16786;49.466;11.068;2023-08-08T03:05:54;5.22;;;2.92;;
29916;SDS011;16786;49.466;11.068;2023-08-08T03:08:22;3.95;;;2.40;;
29916;SDS011;16786;49.466;11.068;2023-08-08T03:10:49;9.50;;;5.38;;
29916;SDS011;16786;49.466;11.068;2023-08-08T03:13:17;4.78;;;2.50;;
29916;SDS011;16786;49.466;11.068;2023-08-08T03:15:44;4.55;;;2.60;;
29916;SDS011;16786;49.466;11.068;2023-08-08T03:18:12;5.00;;;2.70;;
29916;SDS011;16786;49.466;11.068;2023-08-08T03:20:39;4.10;;;2.20;;
29916;SDS011;16786;49.466;11.068;2023-08-08T03:23:08;5.95;;;2.00;;
29916;SDS011;16786;49.466;11.068;2023-08-08T03:25:37;4.78;;;2.20;;
29916;SDS011;16786;49.466;11.068;2023-08-08T03:28:04;6.97;;;2.38;;
29916;SDS011;16786;49.466;11.068;2023-08-08T03:30:32;5.35;;;2.25;;
29916;SDS011;16786;49.466;11.068;2023-08-08T03:33:00;4.03;;;2.13;;
29916;SDS011;16786;49.466;11.068;2023-08-08T03:35:28;3.70;;;2.25;;
29916;SDS011;16786;49.466;11.068;2023-08-08T03:37:55;4.45;;;2.20;;
29916;SDS011;16786;49.466;11.068;2023-08-08T03:40:23;5.30;;;2.28;;
29916;SDS011;16786;49.466;11.068;2023-08-08T03:42:50;4.65;;;2.65;;
29916;SDS011;16786;49.466;11.068;2023-08-08T03:45:18;6.45;;;3.83;;
29916;SDS011;16786;49.466;11.068;2023-08-08T03:47:45;5.93;;;3.10;;
29916;SDS011;16786;49.466;11.068;2023-08-08T03:50:13;5.43;;;2.88;;
29916;SDS011;16786;49.466;11.068;2023-08-08T03:52:40;7.60;;;2.72;;
29916;SDS011;16786;49.466;11.068;2023-08-08T03:55:10;5.05;;;2.20;;
29916;SDS011;16786;49.466;11.068;2023-08-08T03:57:39;5.45;;;2.70;;
29916;SDS011;16786;49.466;11.068;2023-08-08T04:00:06;7.97;;;2.85;;
29916;SDS011;16786;49.466;11.068;2023-08-08T04:02:40;4.88;;;2.55;;
29916;SDS011;16786;49.466;11.068;2023-08-08T04:05:08;6.43;;;2.83;;
29916;SDS011;16786;49.466;11.068;2023-08-08T04:07:35;4.18;;;2.60;;
29916;SDS011;16786;49.466;11.068;2023-08-08T04:10:03;5.80;;;2.97;;
29916;SDS011;16786;49.466;11.068;2023-08-08T04:12:31;5.55;;;2.45;;
29916;SDS011;16786;49.466;11.068;2023-08-08T04:15:00;4.90;;;2.67;;
29916;SDS011;16786;49.466;11.068;2023-08-08T04:17:27;4.78;;;2.25;;
29916;SDS011;16786;49.466;11.068;2023-08-08T04:19:55;4.55;;;2.40;;
29916;SDS011;16786;49.466;11.068;2023-08-08T04:22:22;5.40;;;2.97;;
29916;SDS011;16786;49.466;11.068;2023-08-08T04:24:49;11.77;;;3.40;;
29916;SDS011;16786;49.466;11.068;2023-08-08T04:27:17;5.72;;;2.92;;
29916;SDS011;16786;49.466;11.068;2023-08-08T04:29:44;5.93;;;2.55;;
29916;SDS011;16786;49.466;11.068;2023-08-08T04:32:12;5.90;;;2.45;;
29916;SDS011;16786;49.466;11.068;2023-08-08T04:34:39;5.80;;;2.80;;
29916;SDS011;16786;49.466;11.068;2023-08-08T04:37:07;8.52;;;2.95;;
29916;SDS011;16786;49.466;11.068;2023-08-08T04:39:34;4.30;;;2.83;;
29916;SDS011;16786;49.466;11.068;2023-08-08T04:42:01;5.97;;;3.25;;
29916;SDS011;16786;49.466;11.068;2023-08-08T04:44:29;6.32;;;2.97;;
29916;SDS011;16786;49.466;11.068;2023-08-08T04:46:57;5.80;;;2.97;;
29916;SDS011;16786;49.466;11.068;2023-08-08T04:49:24;5.45;;;2.95;;
29916;SDS011;16786;49.466;11.068;2023-08-08T04:51:51;8.15;;;3.97;;
29916;SDS011;16786;49.466;11.068;2023-08-08T04:54:19;9.57;;;3.35;;
29916;SDS011;16786;49.466;11.068;2023-08-08T04:56:46;8.25;;;4.45;;
29916;SDS011;16786;49.466;11.068;2023-08-08T04:59:14;6.88;;;3.83;;
29916;SDS011;16786;49.466;11.068;2023-08-08T05:01:41;9.45;;;3.78;;
29916;SDS011;16786;49.466;11.068;2023-08-08T05:04:08;9.63;;;4.07;;
29916;SDS011;16786;49.466;11.068;2023-08-08T05:06:36;11.88;;;4.18;;
29916;SDS011;16786;49.466;11.068;2023-08-08T05:09:04;8.15;;;3.03;;
29916;SDS011;16786;49.466;11.068;2023-08-08T05:11:31;6.82;;;3.17;;
29916;SDS011;16786;49.466;11.068;2023-08-08T05:13:58;6.18;;;3.67;;
29916;SDS011;16786;49.466;11.068;2023-08-08T05:16:26;5.28;;;2.83;;
29916;SDS011;16786;49.466;11.068;2023-08-08T05:18:53;5.05;;;2.90;;
29916;SDS011;16786;49.466;11.068;2023-08-08T05:21:21;4.82;;;2.85;;
29916;SDS011;16786;49.466;11.068;2023-08-08T05:23:48;4.85;;;2.97;;
29916;SDS011;16786;49.466;11.068;2023-08-08T05:26:16;7.50;;;2.85;;
29916;SDS011;16786;49.466;11.068;2023-08-08T05:28:44;7.30;;;3.10;;
29916;SDS011;16786;49.466;11.068;2023-08-08T05:31:11;6.13;;;3.00;;
29916;SDS011;16786;49.466;11.068;2023-08-08T05:33:38;5.50;;;2.67;;
29916;SDS011;16786;49.466;11.068;2023-08-08T05:36:06;6.78;;;3.20;;
29916;SDS011;16786;49.466;11.068;2023-08-08T05:38:33;5.57;;;2.70;;
29916;SDS011;16786;49.466;11.068;2023-08-08T05:41:00;6.10;;;2.85;;
29916;SDS011;16786;49.466;11.068;2023-08-08T05:43:28;7.45;;;2.85;;
29916;SDS011;16786;49.466;11.068;2023-08-08T05:45:56;6.88;;;2.75;;
29916;SDS011;16786;49.466;11.068;2023-08-08T05:48:23;4.22;;;2.58;;
29916;SDS011;16786;49.466;11.068;2023-08-08T05:50:51;5.63;;;2.40;;
29916;SDS011;16786;49.466;11.068;2023-08-08T05:53:18;5.20;;;2.80;;
29916;SDS011;16786;49.466;11.068;2023-08-08T05:55:46;5.15;;;2.90;;
29916;SDS011;16786;49.466;11.068;2023-08-08T05:58:13;5.22;;;3.00;;
29916;SDS011;16786;49.466;11.068;2023-08-08T06:00:41;4.82;;;2.88;;
29916;SDS011;16786;49.466;11.068;2023-08-08T06:03:09;5.13;;;2.67;;
29916;SDS011;16786;49.466;11.068;2023-08-08T06:05:36;8.15;;;2.85;;
29916;SDS011;16786;49.466;11.068;2023-08-08T06:08:04;4.28;;;2.53;;
29916;SDS011;16786;49.466;11.068;2023-08-08T06:10:34;6.03;;;2.88;;
29916;SDS011;16786;49.466;11.068;2023-08-08T06:13:02;7.80;;;3.10;;
29916;SDS011;16786;49.466;11.068;2023-08-08T06:15:29;7.15;;;2.20;;
29916;SDS011;16786;49.466;11.068;2023-08-08T06:17:56;5.20;;;2.55;;
29916;SDS011;16786;49.466;11.068;2023-08-08T06:20:24;6.53;;;2.30;;
29916;SDS011;16786;49.466;11.068;2023-08-08T06:22:51;6.32;;;2.63;;
29916;SDS011;16786;49.466;11.068;2023-08-08T06:25:19;9.82;;;2.65;;
29916;SDS011;16786;49.466;11.068;2023-08-08T06:27:46;7.20;;;2.70;;
29916;SDS011;16786;49.466;11.068;2023-08-08T06:30:16;4.80;;;2.90;;
29916;SDS011;16786;49.466;11.068;2023-08-08T06:32:43;8.93;;;2.90;;
29916;SDS011;16786;49.466;11.068;2023-08-08T06:35:10;7.97;;;2.65;;
29916;SDS011;16786;49.466;11.068;2023-08-08T06:37:39;4.97;;;2.65;;
29916;SDS011;16786;49.466;11.068;2023-08-08T06:40:06;5.78;;;2.72;;
29916;SDS011;16786;49.466;11.068;2023-08-08T06:42:34;5.75;;;2.80;;
29916;SDS011;16786;49.466;11.068;2023-08-08T06:45:02;6.25;;;2.88;;
29916;SDS011;16786;49.466;11.068;2023-08-08T06:47:29;4.32;;;2.60;;
29916;SDS011;16786;49.466;11.068;2023-08-08T06:49:57;6.18;;;3.15;;
29916;SDS011;16786;49.466;11.068;2023-08-08T06:52:24;7.93;;;2.60;;
29916;SDS011;16786;49.466;11.068;2023-08-08T06:54:51;4.60;;;2.50;;
29916;SDS011;16786;49.466;11.068;2023-08-08T06:57:19;5.13;;;2.47;;
29916;SDS011;16786;49.466;11.068;2023-08-08T06:59:46;7.43;;;3.00;;
29916;SDS011;16786;49.466;11.068;2023-08-08T07:02:17;5.72;;;2.78;;
29916;SDS011;16786;49.466;11.068;2023-08-08T07:04:47;5.88;;;2.45;;
29916;SDS011;16786;49.466;11.068;2023-08-08T07:07:14;4.53;;;2.78;;
29916;SDS011;16786;49.466;11.068;2023-08-08T07:09:42;7.28;;;2.60;;
29916;SDS011;16786;49.466;11.068;2023-08-08T07:12:10;6.10;;;2.38;;
29916;SDS011;16786;49.466;11.068;2023-08-08T07:14:37;4.07;;;2.50;;
29916;SDS011;16786;49.466;11.068;2023-08-08T07:17:05;7.28;;;2.65;;
29916;SDS011;16786;49.466;11.068;2023-08-08T07:19:32;4.90;;;2.58;;
29916;SDS011;16786;49.466;11.068;2023-08-08T07:22:00;5.20;;;2.05;;
29916;SDS011;16786;49.466;11.068;2023-08-08T07:24:27;4.72;;;2.35;;
29916;SDS011;16786;49.466;11.068;2023-08-08T07:26:56;5.53;;;2.22;;
29916;SDS011;16786;49.466;11.068;2023-08-08T07:29:24;4.85;;;2.40;;
29916;SDS011;16786;49.466;11.068;2023-08-08T07:31:52;6.30;;;2.38;;
29916;SDS011;16786;49.466;11.068;2023-08-08T07:34:20;4.78;;;2.47;;
29916;SDS011;16786;49.466;11.068;2023-08-08T07:36:47;7.10;;;2.30;;
29916;SDS011;16786;49.466;11.068;2023-08-08T07:39:15;4.03;;;2.65;;
29916;SDS011;16786;49.466;11.068;2023-08-08T07:41:43;4.10;;;2.50;;
29916;SDS011;16786;49.466;11.068;2023-08-08T07:44:10;4.43;;;2.45;;
29916;SDS011;16786;49.466;11.068;2023-08-08T07:46:37;3.22;;;2.35;;
29916;SDS011;16786;49.466;11.068;2023-08-08T07:49:05;6.13;;;2.83;;
29916;SDS011;16786;49.466;11.068;2023-08-08T07:51:33;4.03;;;2.33;;
29916;SDS011;16786;49.466;11.068;2023-08-08T07:54:01;6.43;;;2.60;;
29916;SDS011;16786;49.466;11.068;2023-08-08T07:56:29;4.90;;;2.28;;
29916;SDS011;16786;49.466;11.068;2023-08-08T07:58:56;5.72;;;2.50;;
29916;SDS011;16786;49.466;11.068;2023-08-08T08:01:24;5.65;;;2.35;;
29916;SDS011;16786;49.466;11.068;2023-08-08T08:03:54;3.63;;;2.50;;
29916;SDS011;16786;49.466;11.068;2023-08-08T08:06:21;5.70;;;2.63;;
29916;SDS011;16786;49.466;11.068;2023-08-08T08:08:53;6.05;;;2.60;;
29916;SDS011;16786;49.466;11.068;2023-08-08T08:11:22;3.50;;;2.22;;
29916;SDS011;16786;49.466;11.068;2023-08-08T08:13:50;4.47;;;2.30;;
29916;SDS011;16786;49.466;11.068;2023-08-08T08:16:18;4.13;;;2.22;;
29916;SDS011;16786;49.466;11.068;2023-08-08T08:18:47;4.20;;;2.58;;
29916;SDS011;16786;49.466;11.068;2023-08-08T08:21:16;5.88;;;2.60;;
29916;SDS011;16786;49.466;11.068;2023-08-08T08:23:49;4.45;;;2.55;;
29916;SDS011;16786;49.466;11.068;2023-08-08T08:26:18;6.50;;;2.78;;
29916;SDS011;16786;49.466;11.068;2023-08-08T08:28:49;4.05;;;2.60;;
29916;SDS011;16786;49.466;11.068;2023-08-08T08:31:18;4.72;;;2.72;;
29916;SDS011;16786;49.466;11.068;2023-08-08T08:33:47;4.30;;;2.40;;
29916;SDS011;16786;49.466;11.068;2023-08-08T08:36:15;7.50;;;2.78;;
29916;SDS011;16786;49.466;11.068;2023-08-08T08:38:43;4.53;;;2.60;;
29916;SDS011;16786;49.466;11.068;2023-08-08T08:41:11;4.22;;;2.55;;
29916;SDS011;16786;49.466;11.068;2023-08-08T08:43:41;4.80;;;2.67;;
29916;SDS011;16786;49.466;11.068;2023-08-08T08:46:08;3.50;;;2.50;;
29916;SDS011;16786;49.466;11.068;2023-08-08T08:48:38;3.67;;;2.30;;
29916;SDS011;16786;49.466;11.068;2023-08-08T08:51:05;3.35;;;2.28;;
29916;SDS011;16786;49.466;11.068;2023-08-08T08:53:32;4.30;;;2.15;;
29916;SDS011;16786;49.466;11.068;2023-08-08T08:56:01;5.45;;;2.40;;
29916;SDS011;16786;49.466;11.068;2023-08-08T08:58:29;4.50;;;2.42;;
29916;SDS011;16786;49.466;11.068;2023-08-08T09:00:57;5.68;;;2.35;;
29916;SDS011;16786;49.466;11.068;2023-08-08T09:03:25;4.53;;;2.45;;
29916;SDS011;16786;49.466;11.068;2023-08-08T09:05:53;3.10;;;2.65;;
29916;SDS011;16786;49.466;11.068;2023-08-08T09:08:21;3.28;;;2.47;;
29916;SDS011;16786;49.466;11.068;2023-08-08T09:10:49;4.75;;;2.63;;
29916;SDS011;16786;49.466;11.068;2023-08-08T09:13:17;3.80;;;2.70;;
29916;SDS011;16786;49.466;11.068;2023-08-08T09:15:46;5.10;;;2.50;;
29916;SDS011;16786;49.466;11.068;2023-08-08T09:18:15;5.55;;;2.83;;
29916;SDS011;16786;49.466;11.068;2023-08-08T09:20:47;4.53;;;3.10;;
29916;SDS011;16786;49.466;11.068;2023-08-08T09:23:17;5.55;;;2.83;;
29916;SDS011;16786;49.466;11.068;2023-08-08T09:25:44;6.57;;;2.88;;
29916;SDS011;16786;49.466;11.068;2023-08-08T09:28:12;5.60;;;2.85;;
29916;SDS011;16786;49.466;11.068;2023-08-08T09:30:40;3.22;;;2.58;;
29916;SDS011;16786;49.466;11.068;2023-08-08T09:33:08;6.15;;;2.60;;
29916;SDS011;16786;49.466;11.068;2023-08-08T09:35:40;3.63;;;2.50;;
29916;SDS011;16786;49.466;11.068;2023-08-08T09:38:09;4.18;;;2.70;;
29916;SDS011;16786;49.466;11.068;2023-08-08T09:40:38;6.75;;;2.70;;
29916;SDS011;16786;49.466;11.068;2023-08-08T09:43:07;6.00;;;3.97;;
29916;SDS011;16786;49.466;11.068;2023-08-08T09:45:39;5.32;;;2.80;;
29916;SDS011;16786;49.466;11.068;2023-08-08T09:48:09;4.95;;;2.53;;
29916;SDS011;16786;49.466;11.068;2023-08-08T09:50:37;4.75;;;3.20;;
29916;SDS011;16786;49.466;11.068;2023-08-08T09:53:06;4.47;;;2.85;;
29916;SDS011;16786;49.466;11.068;2023-08-08T09:55:33;4.55;;;2.97;;
29916;SDS011;16786;49.466;11.068;2023-08-08T09:58:02;5.30;;;3.00;;
29916;SDS011;16786;49.466;11.068;2023-08-08T10:00:29;4.85;;;3.08;;
29916;SDS011;16786;49.466;11.068;2023-08-08T10:03:00;4.50;;;3.00;;
29916;SDS011;16786;49.466;11.068;2023-08-08T10:05:29;4.70;;;3.08;;
29916;SDS011;16786;49.466;11.068;2023-08-08T10:07:57;5.35;;;2.80;;
29916;SDS011;16786;49.466;11.068;2023-08-08T10:10:25;4.68;;;2.80;;
29916;SDS011;16786;49.466;11.068;2023-08-08T10:12:52;4.97;;;3.10;;
29916;SDS011;16786;49.466;11.068;2023-08-08T10:15:24;3.88;;;2.83;;
29916;SDS011;16786;49.466;11.068;2023-08-08T10:17:56;3.70;;;2.70;;
29916;SDS011;16786;49.466;11.068;2023-08-08T10:20:24;4.28;;;3.30;;
29916;SDS011;16786;49.466;11.068;2023-08-08T10:22:53;4.43;;;2.90;;
29916;SDS011;16786;49.466;11.068;2023-08-08T10:25:25;4.50;;;3.20;;
29916;SDS011;16786;49.466;11.068;2023-08-08T10:31:00;3.90;;;3.08;;
29916;SDS011;16786;49.466;11.068;2023-08-08T10:33:41;6.43;;;3.30;;
29916;SDS011;16786;49.466;11.068;2023-08-08T10:36:09;4.20;;;3.20;;
29916;SDS011;16786;49.466;11.068;2023-08-08T10:41:17;5.03;;;3.20;;
29916;SDS011;16786;49.466;11.068;2023-08-08T10:43:52;3.95;;;3.05;;
29916;SDS011;16786;49.466;11.068;2023-08-08T10:48:53;5.38;;;3.30;;
29916;SDS011;16786;49.466;11.068;2023-08-08T10:51:22;4.70;;;3.00;;
29916;SDS011;16786;49.466;11.068;2023-08-08T10:53:58;5.32;;;3.20;;
29916;SDS011;16786;49.466;11.068;2023-08-08T10:56:30;4.72;;;3.30;;
29916;SDS011;16786;49.466;11.068;2023-08-08T10:58:58;6.68;;;3.60;;
29916;SDS011;16786;49.466;11.068;2023-08-08T11:01:25;7.07;;;3.45;;
29916;SDS011;16786;49.466;11.068;2023-08-08T11:03:53;4.80;;;3.70;;
29916;SDS011;16786;49.466;11.068;2023-08-08T11:06:24;3.78;;;3.10;;
29916;SDS011;16786;49.466;11.068;2023-08-08T11:08:52;5.82;;;3.70;;
29916;SDS011;16786;49.466;11.068;2023-08-08T11:11:21;3.80;;;3.40;;
29916;SDS011;16786;49.466;11.068;2023-08-08T11:13:50;4.57;;;3.28;;
29916;SDS011;16786;49.466;11.068;2023-08-08T11:16:18;6.85;;;3.50;;
29916;SDS011;16786;49.466;11.068;2023-08-08T11:18:46;6.72;;;3.30;;
29916;SDS011;16786;49.466;11.068;2023-08-08T11:21:14;4.70;;;3.38;;
29916;SDS011;16786;49.466;11.068;2023-08-08T11:23:45;3.88;;;3.30;;
29916;SDS011;16786;49.466;11.068;2023-08-08T11:26:14;5.50;;;3.75;;
29916;SDS011;16786;49.466;11.068;2023-08-08T11:28:51;4.80;;;3.47;;
29916;SDS011;16786;49.466;11.068;2023-08-08T11:31:22;4.97;;;3.88;;
29916;SDS011;16786;49.466;11.068;2023-08-08T11:33:50;5.38;;;3.80;;
29916;SDS011;16786;49.466;11.068;2023-08-08T11:36:19;5.25;;;3.85;;
29916;SDS011;16786;49.466;11.068;2023-08-08T11:38:47;4.20;;;3.42;;
29916;SDS011;16786;49.466;11.068;2023-08-08T11:41:15;7.45;;;4.13;;
29916;SDS011;16786;49.466;11.068;2023-08-08T11:43:44;4.70;;;3.35;;
29916;SDS011;16786;49.466;11.068;2023-08-08T11:46:13;4.28;;;3.38;;
29916;SDS011;16786;49.466;11.068;2023-08-08T11:48:41;6.10;;;3.38;;
29916;SDS011;16786;49.466;11.068;2023-08-08T11:51:09;3.97;;;3.20;;
29916;SDS011;16786;49.466;11.068;2023-08-08T11:53:47;7.53;;;3.70;;
29916;SDS011;16786;49.466;11.068;2023-08-08T11:56:17;4.15;;;3.42;;
29916;SDS011;16786;49.466;11.068;2023-08-08T11:58:51;4.15;;;3.75;;
29916;SDS011;16786;49.466;11.068;2023-08-08T12:01:22;8.23;;;3.50;;
29916;SDS011;16786;49.466;11.068;2023-08-08T12:03:50;5.15;;;3.60;;
29916;SDS011;16786;49.466;11.068;2023-08-08T12:06:17;5.50;;;3.65;;
29916;SDS011;16786;49.466;11.068;2023-08-08T12:08:46;5.07;;;3.58;;
29916;SDS011;16786;49.466;11.068;2023-08-08T12:11:15;7.57;;;3.80;;
29916;SDS011;16786;49.466;11.068;2023-08-08T12:13:43;4.85;;;3.85;;
29916;SDS011;16786;49.466;11.068;2023-08-08T12:16:12;5.50;;;3.78;;
29916;SDS011;16786;49.466;11.068;2023-08-08T12:18:48;5.50;;;3.70;;
29916;SDS011;16786;49.466;11.068;2023-08-08T12:21:15;5.07;;;3.40;;
29916;SDS011;16786;49.466;11.068;2023-08-08T12:23:42;5.25;;;3.85;;
29916;SDS011;16786;49.466;11.068;2023-08-08T12:26:10;5.68;;;3.63;;
29916;SDS011;16786;49.466;11.068;2023-08-08T12:28:38;4.70;;;4.00;;
29916;SDS011;16786;49.466;11.068;2023-08-08T12:31:05;6.05;;;3.85;;
29916;SDS011;16786;49.466;11.068;2023-08-08T12:33:33;4.90;;;3.70;;
29916;SDS011;16786;49.466;11.068;2023-08-08T12:36:00;5.10;;;4.00;;
29916;SDS011;16786;49.466;11.068;2023-08-08T12:38:27;5.05;;;4.00;;
29916;SDS011;16786;49.466;11.068;2023-08-08T12:40:55;5.15;;;3.90;;
29916;SDS011;16786;49.466;11.068;2023-08-08T12:43:23;4.70;;;4.20;;
29916;SDS011;16786;49.466;11.068;2023-08-08T12:45:50;6.05;;;4.78;;
29916;SDS011;16786;49.466;11.068;2023-08-08T12:48:18;5.00;;;3.95;;
29916;SDS011;16786;49.466;11.068;2023-08-08T12:50:45;4.40;;;4.00;;
29916;SDS011;16786;49.466;11.068;2023-08-08T12:53:12;5.15;;;4.22;;
29916;SDS011;16786;49.466;11.068;2023-08-08T12:55:40;4.75;;;4.03;;
29916;SDS011;16786;49.466;11.068;2023-08-08T12:58:07;5.22;;;4.18;;
29916;SDS011;16786;49.466;11.068;2023-08-08T13:00:35;6.68;;;4.57;;
29916;SDS011;16786;49.466;11.068;2023-08-08T13:03:03;7.72;;;4.30;;
29916;SDS011;16786;49.466;11.068;2023-08-08T13:05:30;5.70;;;4.00;;
29916;SDS011;16786;49.466;11.068;2023-08-08T13:07:58;5.70;;;4.07;;
29916;SDS011;16786;49.466;11.068;2023-08-08T13:10:25;4.38;;;3.53;;
29916;SDS011;16786;49.466;11.068;2023-08-08T13:12:52;4.72;;;4.28;;
29916;SDS011;16786;49.466;11.068;2023-08-08T13:15:21;8.07;;;4.47;;
29916;SDS011;16786;49.466;11.068;2023-08-08T13:17:49;5.80;;;4.22;;
29916;SDS011;16786;49.466;11.068;2023-08-08T13:20:16;4.90;;;4.50;;
29916;SDS011;16786;49.466;11.068;2023-08-08T13:22:43;4.75;;;4.15;;
29916;SDS011;16786;49.466;11.068;2023-08-08T13:25:11;5.15;;;4.10;;
29916;SDS011;16786;49.466;11.068;2023-08-08T13:27:38;5.65;;;4.00;;
29916;SDS011;16786;49.466;11.068;2023-08-08T13:30:06;5.30;;;4.30;;
29916;SDS011;16786;49.466;11.068;2023-08-08T13:32:33;6.65;;;4.72;;
29916;SDS011;16786;49.466;11.068;2023-08-08T13:35:01;5.20;;;4.70;;
29916;SDS011;16786;49.466;11.068;2023-08-08T13:37:28;5.75;;;4.60;;
29916;SDS011;16786;49.466;11.068;2023-08-08T13:39:56;5.75;;;4.30;;
29916;SDS011;16786;49.466;11.068;2023-08-08T13:42:23;5.32;;;4.78;;
29916;SDS011;16786;49.466;11.068;2023-08-08T13:44:50;5.00;;;4.50;;
29916;SDS011;16786;49.466;11.068;2023-08-08T13:47:19;5.80;;;4.30;;
29916;SDS011;16786;49.466;11.068;2023-08-08T13:49:46;8.43;;;4.72;;
29916;SDS011;16786;49.466;11.068;2023-08-08T13:52:14;5.13;;;4.30;;
29916;SDS011;16786;49.466;11.068;2023-08-08T13:54:41;4.82;;;4.43;;
29916;SDS011;16786;49.466;11.068;2023-08-08T13:57:08;4.82;;;4.32;;
29916;SDS011;16786;49.466;11.068;2023-08-08T13:59:36;6.07;;;4.40;;
29916;SDS011;16786;49.466;11.068;2023-08-08T14:02:03;4.80;;;4.32;;
29916;SDS011;16786;49.466;11.068;2023-08-08T14:04:31;6.18;;;4.25;;
29916;SDS011;16786;49.466;11.068;2023-08-08T14:06:58;5.03;;;4.13;;
29916;SDS011;16786;49.466;11.068;2023-08-08T14:09:26;5.50;;;4.18;;
29916;SDS011;16786;49.466;11.068;2023-08-08T14:11:54;5.70;;;4.30;;
29916;SDS011;16786;49.466;11.068;2023-08-08T14:14:21;5.63;;;4.63;;
29916;SDS011;16786;49.466;11.068;2023-08-08T14:16:48;4.85;;;4.45;;
29916;SDS011;16786;49.466;11.068;2023-08-08T14:19:16;4.60;;;4.20;;
29916;SDS011;16786;49.466;11.068;2023-08-08T14:21:43;5.60;;;4.30;;
29916;SDS011;16786;49.466;11.068;2023-08-08T14:24:11;6.15;;;4.57;;
29916;SDS011;16786;49.466;11.068;2023-08-08T14:26:38;7.90;;;5.32;;
29916;SDS011;16786;49.466;11.068;2023-08-08T14:29:06;6.05;;;4.47;;
29916;SDS011;16786;49.466;11.068;2023-08-08T14:31:33;5.43;;;4.45;;
29916;SDS011;16786;49.466;11.068;2023-08-08T14:34:15;5.50;;;4.53;;
29916;SDS011;16786;49.466;11.068;2023-08-08T14:36:43;5.18;;;4.68;;
29916;SDS011;16786;49.466;11.068;2023-08-08T14:39:10;4.63;;;4.15;;
29916;SDS011;16786;49.466;11.068;2023-08-08T14:41:38;5.07;;;4.57;;
29916;SDS011;16786;49.466;11.068;2023-08-08T14:44:05;7.97;;;5.30;;
29916;SDS011;16786;49.466;11.068;2023-08-08T14:46:32;5.18;;;4.70;;
29916;SDS011;16786;49.466;11.068;2023-08-08T14:49:03;7.00;;;5.20;;
29916;SDS011;16786;49.466;11.068;2023-08-08T14:51:32;4.97;;;4.32;;
29916;SDS011;16786;49.466;11.068;2023-08-08T14:53:59;8.15;;;4.90;;